Time;durP1;ratioP1;P1;durP2;ratioP2;P2;SDS_P1;SDS_P2;PMS_P1;PMS_P2;Temp;Humidity;BMP_temperature;BMP_pressure;BME280_temperature;BME280_humidity;BME280_pressure;Samples;Min_cycle;Max_cycle;Signal;HPM_P1;HPM_P2
2023/11/29 00:01:10;;;;;;;4.70;2.70;;;;;;;18.56;33.97;100316.16;4987288;28;20759;-64
2023/11/29 00:03:35;;;;;;;5.43;2.85;;;;;;;18.53;33.83;100319.88;4987673;28;20035;-66
2023/11/29 00:06:02;;;;;;;5.65;2.90;;;;;;;18.52;33.93;100315.59;4986490;28;20022;-68
2023/11/29 00:08:28;;;;;;;5.35;2.90;;;;;;;18.50;34.19;100322.84;5001812;28;20160;-67
2023/11/29 00:10:53;;;;;;;6.13;3.10;;;;;;;18.49;33.85;100321.97;4987003;28;20128;-67
2023/11/29 00:13:20;;;;;;;4.70;2.83;;;;;;;18.46;33.79;100314.34;4987327;28;20034;-68
2023/11/29 00:15:46;;;;;;;5.15;3.30;;;;;;;18.47;34.21;100317.84;4986478;28;20363;-67
2023/11/29 00:18:12;;;;;;;4.82;2.63;;;;;;;18.45;34.37;100311.84;4986774;28;20030;-65
2023/11/29 00:20:37;;;;;;;5.25;2.90;;;;;;;18.42;34.19;100307.69;4987340;28;20072;-67
2023/11/29 00:23:03;;;;;;;4.93;2.77;;;;;;;18.43;34.32;100304.06;4986974;28;20022;-65
2023/11/29 00:25:28;;;;;;;5.00;2.80;;;;;;;18.44;34.39;100300.47;4987337;28;20279;-65
2023/11/29 00:27:53;;;;;;;4.88;2.83;;;;;;;18.42;34.16;100293.66;4987245;28;20316;-67
2023/11/29 00:30:18;;;;;;;5.20;2.75;;;;;;;18.44;34.05;100294.38;4986928;28;20047;-65
2023/11/29 00:32:44;;;;;;;6.03;3.10;;;;;;;18.43;34.49;100296.16;4987473;28;20470;-67
2023/11/29 00:35:09;;;;;;;4.78;3.13;;;;;;;18.42;34.32;100289.22;4987330;28;20260;-67
2023/11/29 00:37:34;;;;;;;5.10;3.10;;;;;;;18.43;33.91;100292.69;4987050;28;20022;-66
2023/11/29 00:39:59;;;;;;;4.85;2.80;;;;;;;18.42;33.90;100283.94;4986503;28;20356;-65
2023/11/29 00:42:25;;;;;;;6.80;3.53;;;;;;;18.40;33.61;100282.41;4986886;28;20034;-66
2023/11/29 00:44:52;;;;;;;5.07;3.00;;;;;;;18.38;34.07;100274.63;4986849;28;20022;-65
2023/11/29 00:47:19;;;;;;;4.53;2.55;;;;;;;18.37;33.98;100266.88;4986280;28;20069;-68
2023/11/29 00:49:44;;;;;;;5.25;3.10;;;;;;;18.36;33.91;100268.69;4986652;28;20054;-64
2023/11/29 00:52:10;;;;;;;5.13;3.20;;;;;;;18.38;34.00;100276.47;4986790;28;20124;-66
2023/11/29 00:54:35;;;;;;;6.70;3.20;;;;;;;18.36;33.92;100267.81;4987063;28;20431;-63
2023/11/29 00:57:00;;;;;;;5.03;2.70;;;;;;;18.33;34.21;100263.69;4986865;28;20085;-68
2023/11/29 00:59:26;;;;;;;5.88;3.08;;;;;;;18.33;34.05;100263.69;4986622;28;20089;-66
2023/11/29 01:01:51;;;;;;;7.97;3.10;;;;;;;18.33;33.85;100262.84;4986687;28;20018;-65
2023/11/29 01:04:16;;;;;;;6.30;3.13;;;;;;;18.31;33.99;100258.53;4987107;28;20576;-65
2023/11/29 01:06:41;;;;;;;5.47;3.17;;;;;;;18.30;33.63;100253.41;4986531;28;20022;-65
2023/11/29 01:09:07;;;;;;;6.95;3.10;;;;;;;18.28;34.15;100258.00;4986493;28;20383;-67
2023/11/29 01:11:33;;;;;;;4.60;2.90;;;;;;;18.27;34.16;100253.69;4986361;28;20440;-66
2023/11/29 01:13:59;;;;;;;5.57;3.10;;;;;;;18.26;33.97;100262.56;4987195;28;20077;-68
2023/11/29 01:16:24;;;;;;;5.05;2.67;;;;;;;18.25;33.95;100298.66;4986785;28;20451;-68
2023/11/29 01:18:50;;;;;;;4.85;2.88;;;;;;;18.25;33.93;100313.66;4986619;28;20035;-66
2023/11/29 01:21:16;;;;;;;4.32;2.45;;;;;;;18.24;34.19;100322.53;4986733;28;20606;-67
2023/11/29 01:23:42;;;;;;;4.75;3.00;;;;;;;18.24;34.11;100312.81;4986706;28;20057;-66
2023/11/29 01:26:08;;;;;;;4.63;2.70;;;;;;;18.24;34.30;100283.81;4986258;28;20070;-67
2023/11/29 01:28:34;;;;;;;5.63;2.85;;;;;;;18.23;34.11;100283.94;4986697;28;20026;-67
2023/11/29 01:31:00;;;;;;;5.05;3.10;;;;;;;18.22;34.05;100277.84;4988291;28;20390;-64
2023/11/29 01:33:25;;;;;;;4.93;2.67;;;;;;;18.21;34.01;100275.34;4990463;28;20455;-64
2023/11/29 01:35:51;;;;;;;4.63;2.90;;;;;;;18.22;34.12;100287.56;4989470;28;20749;-65
2023/11/29 01:38:17;;;;;;;4.82;2.70;;;;;;;18.21;34.08;100296.44;4990068;28;20264;-68
2023/11/29 01:40:42;;;;;;;4.95;2.80;;;;;;;18.20;34.21;100282.44;4989861;28;20492;-64
2023/11/29 01:43:08;;;;;;;3.95;2.60;;;;;;;18.19;34.36;100280.75;4990048;28;20056;-68
2023/11/29 01:45:33;;;;;;;4.30;2.58;;;;;;;18.17;34.00;100287.97;4988987;28;20039;-67
2023/11/29 01:47:59;;;;;;;5.07;3.05;;;;;;;18.19;34.04;100291.31;4990147;28;20523;-67
2023/11/29 01:50:28;;;;;;;5.13;3.05;;;;;;;18.17;34.26;100297.72;4989587;28;20467;-67
2023/11/29 01:52:54;;;;;;;4.97;2.80;;;;;;;18.16;34.20;100293.38;4989211;28;20045;-66
2023/11/29 01:55:21;;;;;;;5.55;2.97;;;;;;;18.15;34.42;100297.00;4989775;28;20654;-67
2023/11/29 01:57:49;;;;;;;6.00;3.33;;;;;;;18.16;33.87;100288.13;4989287;28;20407;-66
2023/11/29 02:00:14;;;;;;;4.93;3.00;;;;;;;18.14;34.08;100272.44;4989700;28;20129;-69
2023/11/29 02:02:40;;;;;;;5.38;3.10;;;;;;;18.12;34.30;100277.84;4989762;28;20125;-65
2023/11/29 02:05:06;;;;;;;5.32;2.95;;;;;;;18.11;33.97;100270.88;4989275;28;20430;-65
2023/11/29 02:07:31;;;;;;;4.85;2.92;;;;;;;18.10;33.92;100256.06;4989505;28;20038;-65
2023/11/29 02:09:56;;;;;;;5.43;2.90;;;;;;;18.11;34.05;100246.34;4989751;28;20057;-65
2023/11/29 02:12:22;;;;;;;4.90;2.72;;;;;;;18.10;34.16;100240.25;4989338;28;20030;-65
2023/11/29 02:14:48;;;;;;;5.22;3.28;;;;;;;18.09;33.98;100233.28;4989649;28;20018;-66
2023/11/29 02:17:13;;;;;;;5.40;2.78;;;;;;;18.07;33.87;100222.06;4989594;28;20069;-66
2023/11/29 02:19:38;;;;;;;4.53;2.70;;;;;;;18.08;34.10;100218.44;4989004;28;20026;-68
2023/11/29 02:22:04;;;;;;;6.28;3.38;;;;;;;18.06;34.21;100204.56;4989581;28;20081;-67
2023/11/29 02:24:41;;;;;;;4.43;2.70;;;;;;;18.06;34.17;100178.19;4989249;28;20105;-65
2023/11/29 02:27:06;;;;;;;5.53;3.03;;;;;;;18.05;34.08;100188.88;4989480;28;20038;-68
2023/11/29 02:29:32;;;;;;;4.15;2.63;;;;;;;18.04;33.75;100188.06;4988484;28;20093;-68
2023/11/29 02:31:57;;;;;;;5.28;3.15;;;;;;;18.04;33.98;100182.78;4989206;28;20129;-66
2023/11/29 02:34:24;;;;;;;8.75;2.90;;;;;;;18.02;33.92;100191.78;4989367;28;20073;-65
2023/11/29 02:36:49;;;;;;;4.32;2.60;;;;;;;18.03;34.17;100180.28;4989571;28;20529;-64
2023/11/29 02:39:14;;;;;;;5.03;2.70;;;;;;;18.00;34.10;100173.47;4989167;28;20031;-64
2023/11/29 02:41:39;;;;;;;4.07;2.50;;;;;;;17.99;34.25;100170.97;4988708;28;20058;-68
2023/11/29 02:44:05;;;;;;;4.87;2.73;;;;;;;17.99;33.90;100171.84;4988873;28;20026;-68
2023/11/29 02:46:31;;;;;;;5.10;3.00;;;;;;;17.99;34.13;100158.66;4988909;28;20806;-65
2023/11/29 02:48:57;;;;;;;4.15;2.40;;;;;;;17.98;33.91;100156.97;4988702;28;20034;-68
2023/11/29 02:51:22;;;;;;;4.80;2.35;;;;;;;17.95;34.05;100173.88;4988860;28;20570;-67
2023/11/29 02:53:48;;;;;;;4.72;2.50;;;;;;;17.95;33.87;100189.72;4988957;28;20674;-67
2023/11/29 02:56:13;;;;;;;4.30;2.40;;;;;;;17.97;33.83;100191.38;4988272;28;20467;-67
2023/11/29 02:58:39;;;;;;;4.78;2.42;;;;;;;17.97;34.05;100176.38;4988936;28;20026;-66
2023/11/29 03:01:04;;;;;;;5.03;2.40;;;;;;;17.94;34.16;100163.47;4988665;28;20140;-67
2023/11/29 03:03:29;;;;;;;4.15;2.30;;;;;;;17.93;34.20;100164.47;4988372;28;20042;-65
2023/11/29 03:05:55;;;;;;;4.27;2.50;;;;;;;17.94;34.32;100158.22;4988249;28;20414;-65
2023/11/29 03:08:20;;;;;;;5.18;2.55;;;;;;;17.93;33.88;100138.13;4988842;28;20260;-66
2023/11/29 03:10:47;;;;;;;4.63;2.75;;;;;;;17.91;33.77;100134.75;4988616;28;20038;-66
2023/11/29 03:13:13;;;;;;;4.88;2.60;;;;;;;17.89;34.22;100131.44;4988586;28;20023;-64
2023/11/29 03:15:38;;;;;;;4.60;2.50;;;;;;;17.91;33.88;100129.50;4988385;28;20088;-65
2023/11/29 03:18:03;;;;;;;3.80;2.30;;;;;;;17.89;34.20;100127.00;4988476;28;20030;-67
2023/11/29 03:20:29;;;;;;;4.22;2.40;;;;;;;17.90;34.04;100119.94;4988390;28;20045;-67
2023/11/29 03:22:54;;;;;;;3.57;2.10;;;;;;;17.88;34.09;100116.59;4988051;28;20037;-68
2023/11/29 03:25:19;;;;;;;4.22;2.40;;;;;;;17.88;34.11;100106.91;4987970;28;20319;-65
2023/11/29 03:27:44;;;;;;;4.00;2.47;;;;;;;17.86;33.93;100107.97;4987923;28;20034;-65
2023/11/29 03:30:10;;;;;;;3.67;2.37;;;;;;;17.87;34.00;100101.72;4987598;28;20298;-67
2023/11/29 03:32:36;;;;;;;4.40;2.47;;;;;;;17.85;34.23;100093.97;4987686;28;20351;-66
2023/11/29 03:35:01;;;;;;;4.75;2.50;;;;;;;17.83;34.07;100084.53;4987975;28;20515;-67
2023/11/29 03:37:26;;;;;;;4.70;2.42;;;;;;;17.84;34.37;100088.84;4988059;28;20069;-68
2023/11/29 03:39:52;;;;;;;4.40;2.42;;;;;;;17.84;33.86;100089.66;4987844;28;20066;-68
2023/11/29 03:42:17;;;;;;;3.80;2.22;;;;;;;17.84;34.61;100080.94;4987510;28;20390;-69
2023/11/29 03:44:43;;;;;;;3.80;2.28;;;;;;;17.83;34.09;100080.09;4988277;28;20575;-65
2023/11/29 03:47:08;;;;;;;3.88;2.10;;;;;;;17.83;34.13;100074.84;4987905;28;20034;-66
2023/11/29 03:49:33;;;;;;;3.75;1.98;;;;;;;17.81;34.24;100079.41;4987778;28;20444;-67
2023/11/29 03:51:59;;;;;;;3.85;2.10;;;;;;;17.81;33.99;100081.22;4987109;28;20034;-68
2023/11/29 03:54:24;;;;;;;4.82;2.38;;;;;;;17.81;33.97;100066.22;4987504;28;20034;-69
2023/11/29 03:56:50;;;;;;;4.15;2.10;;;;;;;17.80;34.30;100064.56;4987485;28;20090;-67
2023/11/29 03:59:15;;;;;;;4.22;2.03;;;;;;;17.78;34.35;100066.50;4987290;28;20034;-66
2023/11/29 04:01:40;;;;;;;4.35;2.35;;;;;;;17.76;34.00;100058.72;4987546;28;20521;-65
2023/11/29 04:04:06;;;;;;;4.50;2.10;;;;;;;17.76;34.04;100060.53;4987554;28;20034;-65
2023/11/29 04:06:31;;;;;;;4.15;2.42;;;;;;;17.76;33.73;100052.63;4987677;28;20030;-65
2023/11/29 04:08:56;;;;;;;4.22;2.28;;;;;;;17.75;34.26;100043.91;4987495;28;20045;-64
2023/11/29 04:11:22;;;;;;;4.78;2.47;;;;;;;17.75;34.08;100040.41;4986762;28;20101;-66
2023/11/29 04:13:47;;;;;;;5.18;2.20;;;;;;;17.75;34.27;100043.06;4987428;28;20058;-67
2023/11/29 04:16:20;;;;;;;3.75;2.10;;;;;;;17.73;34.07;100029.19;4987801;28;20022;-64
2023/11/29 04:18:46;;;;;;;4.28;2.30;;;;;;;17.73;34.15;100037.94;4987195;28;20066;-65
2023/11/29 04:21:39;;;;;;;3.53;2.10;;;;;;;17.74;34.07;100042.25;4987246;28;20081;-65
2023/11/29 04:24:05;;;;;;;3.78;2.20;;;;;;;17.72;33.95;100044.19;4986378;28;20230;-65
2023/11/29 04:26:33;;;;;;;4.20;2.10;;;;;;;17.73;34.07;100043.19;4986858;28;20127;-66
2023/11/29 04:29:00;;;;;;;5.78;2.20;;;;;;;17.73;34.22;100035.28;4986685;28;20018;-67
2023/11/29 04:31:26;;;;;;;3.78;2.15;;;;;;;17.72;33.94;100041.56;4986804;28;20164;-67
2023/11/29 04:33:52;;;;;;;4.22;1.90;;;;;;;17.73;33.94;100042.38;4987362;28;20121;-65
2023/11/29 04:36:18;;;;;;;3.50;1.88;;;;;;;17.72;34.33;100036.28;4986859;28;20112;-68
2023/11/29 04:38:44;;;;;;;4.43;1.98;;;;;;;17.72;33.94;100035.44;4987365;28;20069;-67
2023/11/29 04:41:10;;;;;;;4.22;2.05;;;;;;;17.71;34.26;100028.53;4986898;28;20117;-64
2023/11/29 04:43:35;;;;;;;4.28;2.22;;;;;;;17.71;34.24;100023.25;4987917;28;20121;-65
2023/11/29 04:46:01;;;;;;;4.00;1.98;;;;;;;17.73;34.21;100021.28;4987556;28;20137;-64
2023/11/29 04:48:26;;;;;;;3.65;1.85;;;;;;;17.71;34.00;100018.78;4987131;28;20121;-67
2023/11/29 04:50:51;;;;;;;3.75;2.05;;;;;;;17.71;33.99;100015.34;4986976;28;20129;-68
2023/11/29 04:53:17;;;;;;;4.25;1.85;;;;;;;17.72;34.32;100017.84;4986817;28;20465;-66
2023/11/29 04:55:42;;;;;;;3.92;2.13;;;;;;;17.71;34.13;100017.97;4987088;28;20049;-67
2023/11/29 04:58:07;;;;;;;4.10;2.30;;;;;;;17.71;34.02;100017.97;4986891;28;20046;-66
2023/11/29 05:00:33;;;;;;;4.00;1.90;;;;;;;17.69;34.27;100012.84;4987052;28;20440;-68
2023/11/29 05:02:58;;;;;;;4.18;1.90;;;;;;;17.68;34.27;100013.81;4986590;28;20330;-68
2023/11/29 05:05:23;;;;;;;4.00;1.95;;;;;;;17.71;34.16;100004.81;4990974;28;20430;-66
2023/11/29 05:07:49;;;;;;;4.32;2.35;;;;;;;17.68;34.03;99992.72;4990396;28;20429;-67
2023/11/29 05:10:14;;;;;;;3.90;1.67;;;;;;;17.70;34.06;99992.59;4990116;28;20467;-66
2023/11/29 05:12:41;;;;;;;4.85;2.00;;;;;;;17.72;33.99;99988.84;4990409;28;20101;-68
2023/11/29 05:15:07;;;;;;;3.58;1.80;;;;;;;17.72;34.08;99993.25;4990468;28;20430;-68
2023/11/29 05:17:32;;;;;;;4.15;1.80;;;;;;;17.70;34.40;99992.59;4990394;28;20045;-66
2023/11/29 05:19:58;;;;;;;4.40;1.95;;;;;;;17.70;34.44;99998.69;4990107;28;20554;-65
2023/11/29 05:22:23;;;;;;;3.85;1.95;;;;;;;17.71;34.33;99991.63;4990238;28;20531;-67
2023/11/29 05:24:48;;;;;;;3.25;1.70;;;;;;;17.71;34.22;99981.09;4990991;28;20475;-64
2023/11/29 05:27:14;;;;;;;4.20;2.00;;;;;;;17.70;34.72;99988.13;4990207;28;20110;-67
2023/11/29 05:29:39;;;;;;;3.93;2.43;;;;;;;17.73;35.10;100019.47;4989816;28;20070;-69
2023/11/29 05:32:04;;;;;;;3.20;1.60;;;;;;;17.74;35.09;100013.25;4989892;28;20284;-68
2023/11/29 05:34:30;;;;;;;3.05;1.70;;;;;;;17.76;35.15;100031.56;4990419;28;20042;-66
2023/11/29 05:36:55;;;;;;;4.03;1.80;;;;;;;17.80;35.33;100011.84;4990394;28;20361;-66
2023/11/29 05:39:21;;;;;;;3.10;1.58;;;;;;;17.83;35.31;100014.22;4989661;28;20284;-67
2023/11/29 05:41:46;;;;;;;3.13;1.52;;;;;;;17.88;35.39;100032.25;4990388;28;20068;-67
2023/11/29 05:44:13;;;;;;;3.50;1.58;;;;;;;17.92;35.06;100033.63;4990059;28;20069;-64
2023/11/29 05:46:39;;;;;;;3.53;1.58;;;;;;;17.94;35.11;100024.63;4989700;28;20471;-65
2023/11/29 05:49:05;;;;;;;4.63;1.50;;;;;;;17.99;35.39;100025.97;4990287;28;20030;-68
2023/11/29 05:51:31;;;;;;;2.95;1.50;;;;;;;18.02;35.32;100036.22;4989788;28;20514;-68
2023/11/29 05:53:57;;;;;;;2.72;1.35;;;;;;;18.04;35.29;100029.84;4990045;28;20026;-65
2023/11/29 05:56:23;;;;;;;3.83;1.48;;;;;;;18.09;35.18;100021.50;4989958;28;20030;-66
2023/11/29 05:58:49;;;;;;;3.15;1.60;;;;;;;18.11;35.25;100023.00;4989026;28;20656;-66
2023/11/29 06:01:16;;;;;;;3.42;1.50;;;;;;;18.14;35.05;100024.53;4990297;28;20040;-67
2023/11/29 06:03:42;;;;;;;3.75;1.60;;;;;;;18.16;35.09;100029.69;4989877;28;20109;-68
2023/11/29 06:06:07;;;;;;;2.83;1.35;;;;;;;18.15;35.36;100036.75;4989842;28;20469;-65
2023/11/29 06:08:33;;;;;;;2.80;1.40;;;;;;;18.20;35.37;100034.53;4990405;28;20076;-65
2023/11/29 06:10:58;;;;;;;2.60;1.50;;;;;;;18.21;35.08;100014.25;4990343;28;20038;-68
2023/11/29 06:13:23;;;;;;;3.47;1.40;;;;;;;18.21;35.06;100015.06;4990207;28;20497;-64
2023/11/29 06:15:49;;;;;;;3.08;1.40;;;;;;;18.24;35.33;100021.88;4988991;28;20274;-66
2023/11/29 06:18:15;;;;;;;4.18;1.60;;;;;;;18.24;35.30;100027.13;4989862;28;20992;-67
2023/11/29 06:20:41;;;;;;;4.38;1.63;;;;;;;18.24;35.23;100032.41;4990045;28;20642;-66
2023/11/29 06:23:07;;;;;;;2.80;1.40;;;;;;;18.26;35.07;100041.00;4989282;28;20454;-67
2023/11/29 06:25:33;;;;;;;3.08;1.27;;;;;;;18.25;35.13;100040.19;4989551;28;20435;-68
2023/11/29 06:27:59;;;;;;;3.42;1.30;;;;;;;18.26;35.24;100028.66;4989125;28;20022;-68
2023/11/29 06:30:24;;;;;;;2.60;1.20;;;;;;;18.27;35.05;100019.75;4989382;28;20608;-65
2023/11/29 06:32:49;;;;;;;2.55;1.02;;;;;;;18.29;35.24;100023.09;4990052;28;20019;-69
2023/11/29 06:35:16;;;;;;;2.53;1.10;;;;;;;18.30;35.26;100016.00;4988635;28;20529;-65
2023/11/29 06:37:47;;;;;;;3.42;1.30;;;;;;;18.29;34.99;100012.56;4988682;28;20057;-66
2023/11/29 06:40:16;;;;;;;3.05;1.40;;;;;;;18.30;35.36;100013.38;4989285;28;20049;-65
2023/11/29 06:42:42;;;;;;;2.25;1.10;;;;;;;18.30;35.20;100027.38;4989161;28;20030;-64
2023/11/29 06:45:09;;;;;;;2.90;1.40;;;;;;;18.30;35.17;100027.38;4988463;28;20381;-67
2023/11/29 06:47:35;;;;;;;2.42;1.30;;;;;;;18.33;35.14;100026.28;4988813;28;20037;-67
2023/11/29 06:50:01;;;;;;;2.47;1.20;;;;;;;18.33;35.02;100028.91;4988940;28;20026;-67
2023/11/29 06:52:26;;;;;;;2.53;1.30;;;;;;;18.33;35.66;100041.28;4988883;28;20063;-67
2023/11/29 06:54:52;;;;;;;2.78;1.17;;;;;;;18.36;35.48;100049.72;4988516;28;20157;-65
2023/11/29 06:57:17;;;;;;;3.20;1.38;;;;;;;18.39;35.75;100043.31;4988294;28;20084;-67
2023/11/29 06:59:43;;;;;;;2.75;1.10;;;;;;;18.38;35.91;100057.50;4988448;28;20463;-67
2023/11/29 07:02:08;;;;;;;2.05;1.17;;;;;;;18.39;35.81;100061.78;4988381;28;20642;-67
2023/11/29 07:04:34;;;;;;;3.40;1.20;;;;;;;18.40;36.06;100077.47;4988878;28;20087;-68
2023/11/29 07:07:00;;;;;;;2.13;1.20;;;;;;;18.39;35.79;100067.91;4988407;28;20475;-67
2023/11/29 07:09:27;;;;;;;3.97;1.40;;;;;;;18.41;36.01;100067.75;4988160;28;20045;-64
2023/11/29 07:11:52;;;;;;;2.10;1.02;;;;;;;18.41;35.78;100058.03;4988373;28;20028;-68
2023/11/29 07:14:18;;;;;;;2.17;1.10;;;;;;;18.42;35.79;100056.22;4988256;28;20129;-65
2023/11/29 07:16:44;;;;;;;2.45;1.10;;;;;;;18.40;35.69;100060.81;4988430;28;20073;-65
2023/11/29 07:19:09;;;;;;;2.55;1.10;;;;;;;18.42;35.67;100062.34;4988088;28;20037;-66
2023/11/29 07:21:35;;;;;;;2.03;1.00;;;;;;;18.43;36.08;100061.34;4987827;28;20031;-65
2023/11/29 07:24:00;;;;;;;2.33;1.00;;;;;;;18.45;36.06;100055.91;4987158;28;20034;-66
2023/11/29 07:26:25;;;;;;;3.00;1.20;;;;;;;18.44;36.19;100063.00;4988235;28;20351;-66
2023/11/29 07:28:51;;;;;;;2.65;1.30;;;;;;;18.44;35.97;100060.38;4987674;28;20121;-67
2023/11/29 07:31:16;;;;;;;2.25;1.10;;;;;;;18.44;36.22;100059.56;4987818;28;20093;-65
2023/11/29 07:33:43;;;;;;;1.30;0.88;;;;;;;18.45;36.14;100069.13;4987939;28;20034;-65
2023/11/29 07:36:12;;;;;;;2.97;1.10;;;;;;;18.42;36.35;100066.75;4987480;28;20061;-64
2023/11/29 07:38:38;;;;;;;2.33;1.10;;;;;;;18.45;36.35;100066.47;4987253;28;20391;-64
2023/11/29 07:41:03;;;;;;;1.70;0.90;;;;;;;18.45;36.28;100061.19;5002352;28;20431;-67
2023/11/29 07:43:29;;;;;;;1.80;1.08;;;;;;;18.47;36.34;100057.44;4987468;28;20034;-66
2023/11/29 07:45:54;;;;;;;2.30;1.10;;;;;;;18.49;36.46;100059.94;4987361;28;20031;-65
2023/11/29 07:48:21;;;;;;;2.47;1.05;;;;;;;18.48;36.48;100059.13;4986958;28;20109;-67
2023/11/29 07:50:49;;;;;;;3.42;1.08;;;;;;;18.47;36.41;100060.09;4984997;28;20034;-66
2023/11/29 07:53:14;;;;;;;3.08;1.20;;;;;;;18.49;36.84;100070.50;4987637;28;20048;-64
2023/11/29 07:55:40;;;;;;;2.53;1.00;;;;;;;18.50;36.62;100077.44;4987288;28;20068;-67
2023/11/29 07:58:05;;;;;;;2.92;1.00;;;;;;;18.51;36.97;100102.84;4987565;28;20105;-65
2023/11/29 08:00:30;;;;;;;3.83;1.00;;;;;;;18.54;36.64;100122.84;4987709;28;20034;-66
2023/11/29 08:02:56;;;;;;;2.65;1.00;;;;;;;18.54;36.54;100115.75;4987218;28;20271;-65
2023/11/29 08:05:25;;;;;;;3.03;1.30;;;;;;;18.52;36.55;100104.50;4987212;28;20057;-67
2023/11/29 08:07:50;;;;;;;3.30;1.20;;;;;;;18.53;36.58;100121.16;4987314;28;20034;-65
2023/11/29 08:10:16;;;;;;;2.30;1.00;;;;;;;18.53;36.71;100111.44;4988043;28;20072;-64
2023/11/29 08:12:42;;;;;;;2.67;1.10;;;;;;;18.53;36.43;100124.63;4987215;28;20387;-66
2023/11/29 08:15:07;;;;;;;4.35;1.23;;;;;;;18.53;36.57;100113.25;4987341;28;20026;-65
2023/11/29 08:17:33;;;;;;;2.95;1.00;;;;;;;18.52;36.82;100122.97;4987323;28;20022;-67
2023/11/29 08:19:58;;;;;;;4.13;1.00;;;;;;;18.54;37.00;100128.94;4987538;28;20034;-66
2023/11/29 08:22:23;;;;;;;2.88;1.00;;;;;;;18.55;36.55;100137.66;4987092;28;20034;-66
2023/11/29 08:24:49;;;;;;;2.72;1.20;;;;;;;18.53;36.38;100127.25;4987274;28;20080;-66
2023/11/29 08:27:15;;;;;;;3.58;1.08;;;;;;;18.54;36.44;100134.22;4987252;28;20029;-64
2023/11/29 08:29:42;;;;;;;2.22;0.82;;;;;;;18.53;36.68;100140.44;4986509;28;20042;-67
2023/11/29 08:32:07;;;;;;;1.73;0.70;;;;;;;18.55;36.63;100143.81;4986873;28;20089;-66
2023/11/29 08:34:32;;;;;;;4.18;0.93;;;;;;;18.55;36.45;100145.59;4986779;28;20054;-67
2023/11/29 08:36:58;;;;;;;2.25;0.85;;;;;;;18.56;36.70;100145.44;4986717;28;20030;-66
2023/11/29 08:39:23;;;;;;;2.83;0.90;;;;;;;18.58;36.42;100140.88;4986466;28;20029;-64
2023/11/29 08:41:48;;;;;;;2.42;1.08;;;;;;;18.59;36.33;100139.06;4987025;28;20128;-64
2023/11/29 08:44:15;;;;;;;2.58;0.80;;;;;;;18.66;36.24;100148.91;4986794;28;20026;-63
2023/11/29 08:46:41;;;;;;;3.80;1.10;;;;;;;18.77;36.36;100142.59;4987025;28;20081;-64
2023/11/29 08:49:07;;;;;;;3.30;0.95;;;;;;;18.88;36.17;100146.88;4987038;28;20363;-65
2023/11/29 08:51:33;;;;;;;1.98;0.85;;;;;;;18.94;36.37;100150.75;4986565;28;20034;-66
2023/11/29 08:53:59;;;;;;;2.03;0.70;;;;;;;19.01;36.14;100151.84;4986680;28;20545;-67
2023/11/29 08:56:24;;;;;;;2.25;0.75;;;;;;;19.01;36.14;100147.38;4986747;28;20030;-66
2023/11/29 08:58:50;;;;;;;0.90;0.50;;;;;;;18.96;36.18;100139.06;4986961;28;20030;-65
2023/11/29 09:01:19;;;;;;;1.83;0.73;;;;;;;18.93;36.40;100144.66;4986108;28;20125;-66
2023/11/29 09:03:44;;;;;;;1.63;0.50;;;;;;;18.90;36.34;100137.03;4985315;28;20382;-66
2023/11/29 09:06:10;;;;;;;2.15;0.88;;;;;;;18.88;35.81;100133.66;4986775;28;20344;-68
2023/11/29 09:08:35;;;;;;;3.22;0.80;;;;;;;18.78;36.31;100141.63;5001243;28;20125;-67
2023/11/29 09:11:02;;;;;;;1.90;0.80;;;;;;;18.78;36.04;100154.81;4986429;28;20049;-67
2023/11/29 09:13:27;;;;;;;2.13;0.80;;;;;;;18.74;36.33;100148.19;4986850;28;20121;-67
2023/11/29 09:15:54;;;;;;;2.65;1.08;;;;;;;18.73;36.58;100159.69;4986971;28;20113;-66
2023/11/29 09:18:20;;;;;;;1.70;0.70;;;;;;;18.72;36.56;100158.03;4986491;28;20071;-67
2023/11/29 09:20:45;;;;;;;1.70;0.70;;;;;;;18.75;36.81;100173.56;4986521;28;20112;-64
2023/11/29 09:23:10;;;;;;;1.70;0.70;;;;;;;18.72;36.84;100171.22;4986531;28;20636;-67
2023/11/29 09:25:36;;;;;;;1.85;0.73;;;;;;;18.74;36.68;100171.09;4986531;28;20035;-66
2023/11/29 09:28:06;;;;;;;1.70;0.80;;;;;;;18.76;36.57;100183.16;4986314;28;20379;-66
2023/11/29 09:30:34;;;;;;;2.15;0.80;;;;;;;18.79;36.77;100189.97;4985633;28;20057;-67
2023/11/29 09:33:00;;;;;;;1.63;0.60;;;;;;;18.76;37.01;100182.34;4985866;28;20129;-68
2023/11/29 09:35:25;;;;;;;2.25;0.70;;;;;;;18.77;36.83;100186.63;4986330;28;20113;-66
2023/11/29 09:37:50;;;;;;;1.80;0.70;;;;;;;18.77;36.99;100190.13;4986457;28;20423;-69
2023/11/29 09:40:16;;;;;;;2.40;0.65;;;;;;;18.76;36.96;100191.09;4987076;28;20038;-67
2023/11/29 09:42:42;;;;;;;2.17;0.80;;;;;;;18.75;36.80;100194.69;4986324;28;20045;-66
2023/11/29 09:45:18;;;;;;;1.52;0.57;;;;;;;18.73;37.09;100198.47;5001183;28;20034;-67
2023/11/29 09:47:43;;;;;;;1.55;0.60;;;;;;;18.73;36.94;100199.28;4986566;28;20123;-65
2023/11/29 09:50:09;;;;;;;2.30;0.80;;;;;;;18.75;36.91;100207.06;4986474;28;20105;-66
2023/11/29 09:52:35;;;;;;;1.77;0.70;;;;;;;18.73;36.86;100196.66;4989454;28;20129;-67
2023/11/29 09:55:01;;;;;;;2.25;0.75;;;;;;;18.76;36.82;100206.09;4989207;28;20498;-67
2023/11/29 09:57:26;;;;;;;1.92;0.70;;;;;;;18.72;36.88;100202.91;4989698;28;20399;-66
2023/11/29 09:59:52;;;;;;;3.28;0.75;;;;;;;18.73;36.72;100201.94;4988229;28;20050;-68
2023/11/29 10:02:23;;;;;;;3.30;0.80;;;;;;;18.72;36.76;100210.00;4988113;28;20038;-69
2023/11/29 10:04:48;;;;;;;4.25;0.80;;;;;;;18.70;36.61;100202.22;4987972;28;20026;-68
2023/11/29 10:07:14;;;;;;;2.25;0.70;;;;;;;18.71;36.87;100206.53;4986035;28;20324;-69
2023/11/29 10:09:40;;;;;;;2.42;0.68;;;;;;;18.73;37.16;100207.22;4987358;28;20045;-67
2023/11/29 10:12:08;;;;;;;2.10;0.63;;;;;;;18.75;36.98;100210.53;4987469;28;20030;-67
2023/11/29 10:14:34;;;;;;;3.70;0.77;;;;;;;18.77;36.98;100207.75;4988412;28;20854;-66
2023/11/29 10:16:59;;;;;;;3.03;0.90;;;;;;;18.77;37.14;100207.75;4988855;28;20137;-66
2023/11/29 10:19:25;;;;;;;2.35;0.80;;;;;;;18.81;36.93;100212.59;4988283;28;20211;-68
2023/11/29 10:21:53;;;;;;;1.67;0.80;;;;;;;18.81;37.00;100209.97;4988448;28;20120;-65
2023/11/29 10:24:25;;;;;;;2.05;0.70;;;;;;;18.84;37.07;100214.97;4988373;28;20030;-65
2023/11/29 10:26:50;;;;;;;2.33;0.63;;;;;;;18.83;37.15;100208.03;4986978;28;20038;-64
2023/11/29 10:29:16;;;;;;;1.48;0.50;;;;;;;18.87;37.00;100205.09;4986524;28;20054;-65
2023/11/29 10:31:42;;;;;;;1.45;0.47;;;;;;;18.86;36.97;100212.19;4988820;28;20067;-66
2023/11/29 10:34:10;;;;;;;1.83;0.65;;;;;;;18.84;36.87;100212.34;4989042;28;20026;-65
2023/11/29 10:36:39;;;;;;;3.97;0.80;;;;;;;18.85;36.96;100206.09;4988226;28;20034;-65
2023/11/29 10:39:11;;;;;;;1.95;0.95;;;;;;;18.82;37.23;100201.06;4989002;28;20027;-67
2023/11/29 10:41:47;;;;;;;1.67;0.50;;;;;;;18.88;37.02;100214.69;4988593;28;20054;-67
2023/11/29 10:44:14;;;;;;;2.55;0.55;;;;;;;18.88;36.83;100198.84;4989453;28;20034;-67
2023/11/29 10:46:41;;;;;;;1.83;0.70;;;;;;;18.91;36.99;100203.84;4988913;28;20621;-65
2023/11/29 10:49:16;;;;;;;1.75;0.50;;;;;;;18.90;37.14;100195.09;4988250;28;20038;-65
2023/11/29 10:51:45;;;;;;;1.90;0.60;;;;;;;18.92;37.05;100189.69;4988646;28;20133;-65
2023/11/29 10:54:13;;;;;;;3.72;0.70;;;;;;;18.93;37.25;100202.75;5003401;28;20474;-65
2023/11/29 10:56:40;;;;;;;1.60;0.65;;;;;;;18.94;37.35;100195.63;4988738;28;20030;-64
2023/11/29 10:59:10;;;;;;;2.30;0.93;;;;;;;18.96;37.58;100205.09;4988909;28;20122;-65
2023/11/29 11:01:36;;;;;;;1.90;0.60;;;;;;;18.95;37.57;100195.50;4988224;28;20038;-65
2023/11/29 11:04:03;;;;;;;3.05;0.73;;;;;;;18.99;37.30;100206.59;4988571;28;20029;-65
2023/11/29 11:06:29;;;;;;;2.30;0.98;;;;;;;19.00;37.46;100210.91;4988497;28;20375;-66
2023/11/29 11:08:55;;;;;;;1.38;0.60;;;;;;;18.95;37.64;100208.69;4987802;28;20043;-65
2023/11/29 11:11:40;;;;;;;1.65;0.70;;;;;;;18.96;37.59;100209.53;4988266;28;20054;-65
2023/11/29 11:14:14;;;;;;;1.17;0.50;;;;;;;18.94;37.70;100208.84;4988114;28;20030;-65
2023/11/29 11:17:18;;;;;;;1.75;0.57;;;;;;;18.94;37.71;100203.56;4987985;28;20108;-65
2023/11/29 11:19:45;;;;;;;2.10;0.50;;;;;;;18.95;37.54;100203.41;4966854;28;20356;-65